ADDS METAR Data INFO
IDs: Format: Raw Decoded Include TAF

Data at: 0025 UTC 23 Oct 2017

KPSF 222354Z AUTO 15005KT 10SM CLR 14/06 A3035 RMK AO2 SLP273 T01440056 10228 20128 53001
KPSF 222254Z AUTO 15006KT 10SM CLR 17/06 A3035 RMK AO2 SLP268 T01670061
KPSF 222154Z AUTO 14004KT 10SM CLR 17/07 A3034 RMK AO2 SLP265 T01670067
KPSF 222054Z AUTO 21007KT 10SM CLR 21/04 A3035 RMK AO2 SLP265 T02110044 56003
KPSF 221954Z AUTO VRB03KT 10SM CLR 22/04 A3036 RMK AO2 SLP267 T02170044
KPSF 221854Z AUTO 17006KT 10SM CLR 22/04 A3035 RMK AO2 SLP263 T02170039
KPSF 221754Z AUTO 19006KT 10SM CLR 22/05 A3036 RMK AO2 SLP266 T02220050 10228 20044 56015
KPSF 221654Z AUTO 00000KT 10SM CLR 22/05 A3037 RMK AO2 SLP269 T02220050
KPSF 221554Z AUTO 00000KT 10SM CLR 19/06 A3039 RMK AO2 SLP279 T01890061
KPSF 221454Z AUTO 00000KT 10SM CLR 16/06 A3040 RMK AO2 SLP285 T01610056 58001
KPSF 221354Z AUTO 00000KT 10SM CLR 11/06 A3041 RMK AO2 SLP293 T01110061
KPSF 221254Z AUTO 00000KT 10SM CLR 08/07 A3042 RMK AO2 SLP295 T00830067
KPSF 221154Z AUTO 00000KT 10SM CLR 04/03 A3041 RMK AO2 SLP293 T00440033 10067 20039 53012
KPSF 221054Z AUTO 00000KT 10SM CLR 05/03 A3039 RMK AO2 SLP285 T00500033
KPSF 220954Z AUTO 00000KT 10SM CLR 05/04 A3038 RMK AO2 SLP281 T00500039
KPSF 220854Z AUTO 00000KT 8SM CLR 06/04 A3037 RMK AO2 SLP273 T00560044 53003
KPSF 220754Z AUTO 00000KT 10SM CLR 06/04 A3036 RMK AO2 SLP269 T00560044
KPSF 220654Z AUTO 00000KT 10SM CLR 06/04 A3036 RMK AO2 SLP268 T00610044
KPSF 220554Z AUTO 00000KT 10SM CLR 06/04 A3036 RMK AO2 SLP268 T00610044 10117 20056 50002
KPSF 220454Z AUTO 00000KT 10SM CLR 06/04 A3036 RMK AO2 SLP269 T00610044 402280028
KPSF 220354Z AUTO 00000KT 10SM CLR 08/04 A3035 RMK AO2 SLP266 T00780044
KPSF 220254Z AUTO 00000KT 10SM CLR 08/05 A3035 RMK AO2 SLP268 T00780050 51007
KPSF 220154Z AUTO 00000KT 10SM CLR 08/04 A3035 RMK AO2 SLP271 T00830044
KPSF 220054Z AUTO 00000KT 10SM CLR 10/04 A3034 RMK AO2 SLP269 T01000044
KPSF 212354Z AUTO 00000KT 10SM CLR 11/04 A3033 RMK AO2 SLP267 T01110044 10228 20111 53010
KPSF 212254Z AUTO 00000KT 10SM CLR 13/06 A3032 RMK AO2 SLP262 T01330056
KPSF 212154Z AUTO 00000KT 10SM CLR 17/08 A3031 RMK AO2 SLP257 T01670083
KPSF 212054Z AUTO 21003KT 10SM CLR 20/07 A3030 RMK AO2 SLP250 T02000067 53000
KPSF 211954Z AUTO 30004KT 10SM CLR 21/04 A3029 RMK AO2 SLP247 T02110044
KPSF 211854Z AUTO VRB05KT 10SM CLR 22/04 A3029 RMK AO2 SLP244 T02220039
KPSF 211754Z AUTO 29009KT 10SM CLR 22/04 A3030 RMK AO2 SLP245 T02170039 10222 20039 56007
KPSF 211654Z AUTO 27009KT 10SM CLR 21/04 A3030 RMK AO2 SLP247 T02110039
KPSF 211554Z AUTO VRB03KT 10SM CLR 19/02 A3031 RMK AO2 SLP252 T01890022
KPSF 211454Z AUTO 00000KT 10SM CLR 16/04 A3032 RMK AO2 SLP253 T01610044 50002
KPSF 211354Z AUTO 00000KT 10SM CLR 12/04 A3032 RMK AO2 SLP257 T01170044
KPSF 211254Z AUTO 00000KT 10SM CLR 08/04 A3033 RMK AO2 SLP261 T00780039